sensor_id;sensor_type;location;lat;lon;timestamp;P1;durP1;ratioP1;P2;durP2;ratioP2
60370;SDS011;48550;40.588;49.684;2022-08-01T00:01:41;12.10;;;9.98;;
60370;SDS011;48550;40.588;49.684;2022-08-01T00:04:07;11.10;;;9.75;;
60370;SDS011;48550;40.588;49.684;2022-08-01T00:06:32;10.48;;;9.18;;
60370;SDS011;48550;40.588;49.684;2022-08-01T00:08:58;10.82;;;9.10;;
60370;SDS011;48550;40.588;49.684;2022-08-01T00:11:24;11.80;;;10.10;;
60370;SDS011;48550;40.588;49.684;2022-08-01T00:13:50;14.75;;;9.38;;
60370;SDS011;48550;40.588;49.684;2022-08-01T00:16:16;12.95;;;9.35;;
60370;SDS011;48550;40.588;49.684;2022-08-01T00:18:41;10.68;;;9.57;;
60370;SDS011;48550;40.588;49.684;2022-08-01T00:21:07;12.68;;;10.07;;
60370;SDS011;48550;40.588;49.684;2022-08-01T00:23:33;13.18;;;11.05;;
60370;SDS011;48550;40.588;49.684;2022-08-01T00:25:59;12.60;;;10.00;;
60370;SDS011;48550;40.588;49.684;2022-08-01T00:28:25;11.85;;;10.25;;
60370;SDS011;48550;40.588;49.684;2022-08-01T00:30:50;10.98;;;9.73;;
60370;SDS011;48550;40.588;49.684;2022-08-01T00:33:16;13.40;;;10.23;;
60370;SDS011;48550;40.588;49.684;2022-08-01T00:35:43;12.02;;;9.57;;
60370;SDS011;48550;40.588;49.684;2022-08-01T00:38:08;13.43;;;9.70;;
60370;SDS011;48550;40.588;49.684;2022-08-01T00:40:34;11.43;;;9.65;;
60370;SDS011;48550;40.588;49.684;2022-08-01T00:43:00;13.18;;;10.32;;
60370;SDS011;48550;40.588;49.684;2022-08-01T00:45:26;13.50;;;11.38;;
60370;SDS011;48550;40.588;49.684;2022-08-01T00:47:52;10.60;;;9.60;;
60370;SDS011;48550;40.588;49.684;2022-08-01T00:50:17;14.77;;;9.85;;
60370;SDS011;48550;40.588;49.684;2022-08-01T00:52:43;10.90;;;9.80;;
60370;SDS011;48550;40.588;49.684;2022-08-01T00:55:09;13.82;;;10.05;;
60370;SDS011;48550;40.588;49.684;2022-08-01T00:57:37;11.95;;;10.10;;
60370;SDS011;48550;40.588;49.684;2022-08-01T01:00:05;11.30;;;9.98;;
60370;SDS011;48550;40.588;49.684;2022-08-01T01:02:33;11.57;;;9.95;;
60370;SDS011;48550;40.588;49.684;2022-08-01T01:04:59;13.63;;;10.85;;
60370;SDS011;48550;40.588;49.684;2022-08-01T01:07:37;11.93;;;10.43;;
60370;SDS011;48550;40.588;49.684;2022-08-01T01:10:15;14.10;;;11.10;;
60370;SDS011;48550;40.588;49.684;2022-08-01T01:15:43;13.75;;;10.52;;
60370;SDS011;48550;40.588;49.684;2022-08-01T01:18:14;11.30;;;10.10;;
60370;SDS011;48550;40.588;49.684;2022-08-01T01:21:21;14.45;;;10.45;;
60370;SDS011;48550;40.588;49.684;2022-08-01T01:35:29;15.40;;;12.38;;
60370;SDS011;48550;40.588;49.684;2022-08-01T01:38:04;12.25;;;10.68;;
60370;SDS011;48550;40.588;49.684;2022-08-01T01:40:34;15.27;;;11.75;;
60370;SDS011;48550;40.588;49.684;2022-08-01T01:43:01;15.07;;;11.38;;
60370;SDS011;48550;40.588;49.684;2022-08-01T01:45:27;20.02;;;12.57;;
60370;SDS011;48550;40.588;49.684;2022-08-01T01:47:54;17.23;;;13.13;;
60370;SDS011;48550;40.588;49.684;2022-08-01T01:50:22;17.85;;;14.18;;
60370;SDS011;48550;40.588;49.684;2022-08-01T01:52:50;17.00;;;13.32;;
60370;SDS011;48550;40.588;49.684;2022-08-01T01:55:17;17.10;;;13.63;;
60370;SDS011;48550;40.588;49.684;2022-08-01T01:57:46;30.23;;;21.45;;
60370;SDS011;48550;40.588;49.684;2022-08-01T02:00:13;46.67;;;28.42;;
60370;SDS011;48550;40.588;49.684;2022-08-01T02:02:40;30.73;;;22.10;;
60370;SDS011;48550;40.588;49.684;2022-08-01T02:05:08;29.17;;;21.67;;
60370;SDS011;48550;40.588;49.684;2022-08-01T02:07:36;27.15;;;19.15;;
60370;SDS011;48550;40.588;49.684;2022-08-01T02:10:04;27.85;;;20.70;;
60370;SDS011;48550;40.588;49.684;2022-08-01T02:12:35;35.03;;;21.30;;
60370;SDS011;48550;40.588;49.684;2022-08-01T02:15:03;31.05;;;19.98;;
60370;SDS011;48550;40.588;49.684;2022-08-01T02:17:30;29.52;;;19.92;;
60370;SDS011;48550;40.588;49.684;2022-08-01T02:19:57;30.33;;;19.48;;
60370;SDS011;48550;40.588;49.684;2022-08-01T02:22:25;30.15;;;20.70;;
60370;SDS011;48550;40.588;49.684;2022-08-01T02:25:00;26.73;;;17.80;;
60370;SDS011;48550;40.588;49.684;2022-08-01T02:27:30;28.13;;;18.88;;
60370;SDS011;48550;40.588;49.684;2022-08-01T02:30:00;29.67;;;18.50;;
60370;SDS011;48550;40.588;49.684;2022-08-01T02:32:43;23.90;;;17.35;;
60370;SDS011;48550;40.588;49.684;2022-08-01T02:35:13;25.40;;;17.45;;
60370;SDS011;48550;40.588;49.684;2022-08-01T02:37:44;27.05;;;16.77;;
60370;SDS011;48550;40.588;49.684;2022-08-01T02:40:12;33.10;;;17.55;;
60370;SDS011;48550;40.588;49.684;2022-08-01T02:42:41;24.65;;;16.02;;
60370;SDS011;48550;40.588;49.684;2022-08-01T02:45:10;25.55;;;18.40;;
60370;SDS011;48550;40.588;49.684;2022-08-01T02:47:37;25.25;;;17.23;;
60370;SDS011;48550;40.588;49.684;2022-08-01T02:50:05;22.30;;;15.52;;
60370;SDS011;48550;40.588;49.684;2022-08-01T02:52:33;22.98;;;15.07;;
60370;SDS011;48550;40.588;49.684;2022-08-01T02:55:01;25.50;;;15.90;;
60370;SDS011;48550;40.588;49.684;2022-08-01T02:57:27;34.30;;;19.95;;
60370;SDS011;48550;40.588;49.684;2022-08-01T02:59:55;36.75;;;21.15;;
60370;SDS011;48550;40.588;49.684;2022-08-01T03:02:24;40.92;;;24.45;;
60370;SDS011;48550;40.588;49.684;2022-08-01T03:04:51;35.85;;;21.10;;
60370;SDS011;48550;40.588;49.684;2022-08-01T03:07:18;34.42;;;20.65;;
60370;SDS011;48550;40.588;49.684;2022-08-01T03:09:46;33.70;;;20.45;;
60370;SDS011;48550;40.588;49.684;2022-08-01T03:12:21;25.88;;;18.80;;
60370;SDS011;48550;40.588;49.684;2022-08-01T03:14:51;25.88;;;17.90;;
60370;SDS011;48550;40.588;49.684;2022-08-01T03:17:21;22.73;;;16.38;;
60370;SDS011;48550;40.588;49.684;2022-08-01T03:19:49;25.17;;;14.10;;
60370;SDS011;48550;40.588;49.684;2022-08-01T03:22:17;25.52;;;14.63;;
60370;SDS011;48550;40.588;49.684;2022-08-01T03:24:47;18.25;;;13.05;;
60370;SDS011;48550;40.588;49.684;2022-08-01T03:27:18;18.88;;;12.35;;
60370;SDS011;48550;40.588;49.684;2022-08-01T03:29:46;26.00;;;12.23;;
60370;SDS011;48550;40.588;49.684;2022-08-01T03:32:14;21.02;;;13.48;;
60370;SDS011;48550;40.588;49.684;2022-08-01T03:34:41;46.25;;;13.93;;
60370;SDS011;48550;40.588;49.684;2022-08-01T03:39:54;25.85;;;13.05;;
60370;SDS011;48550;40.588;49.684;2022-08-01T03:42:34;19.30;;;12.15;;
60370;SDS011;48550;40.588;49.684;2022-08-01T03:45:08;23.13;;;12.32;;
60370;SDS011;48550;40.588;49.684;2022-08-01T03:47:42;16.70;;;12.05;;
60370;SDS011;48550;40.588;49.684;2022-08-01T03:50:10;17.80;;;11.27;;
60370;SDS011;48550;40.588;49.684;2022-08-01T03:52:39;19.65;;;11.13;;
60370;SDS011;48550;40.588;49.684;2022-08-01T03:55:08;19.00;;;11.52;;
60370;SDS011;48550;40.588;49.684;2022-08-01T03:57:36;22.48;;;11.75;;
60370;SDS011;48550;40.588;49.684;2022-08-01T04:00:04;19.98;;;11.77;;
60370;SDS011;48550;40.588;49.684;2022-08-01T04:02:34;23.37;;;11.13;;
60370;SDS011;48550;40.588;49.684;2022-08-01T04:05:00;19.90;;;9.73;;
60370;SDS011;48550;40.588;49.684;2022-08-01T04:07:28;16.10;;;8.25;;
60370;SDS011;48550;40.588;49.684;2022-08-01T04:09:57;15.90;;;7.20;;
60370;SDS011;48550;40.588;49.684;2022-08-01T04:12:23;12.25;;;6.15;;
60370;SDS011;48550;40.588;49.684;2022-08-01T04:14:49;17.92;;;6.55;;
60370;SDS011;48550;40.588;49.684;2022-08-01T04:17:15;12.88;;;6.45;;
60370;SDS011;48550;40.588;49.684;2022-08-01T04:19:42;13.48;;;5.63;;
60370;SDS011;48550;40.588;49.684;2022-08-01T04:22:09;11.75;;;6.18;;
60370;SDS011;48550;40.588;49.684;2022-08-01T04:24:36;12.90;;;6.40;;
60370;SDS011;48550;40.588;49.684;2022-08-01T04:27:04;12.93;;;6.25;;
60370;SDS011;48550;40.588;49.684;2022-08-01T04:29:34;14.98;;;5.43;;
60370;SDS011;48550;40.588;49.684;2022-08-01T04:32:02;11.45;;;5.10;;
60370;SDS011;48550;40.588;49.684;2022-08-01T04:34:30;10.38;;;5.40;;
60370;SDS011;48550;40.588;49.684;2022-08-01T04:36:58;7.53;;;4.10;;
60370;SDS011;48550;40.588;49.684;2022-08-01T04:39:26;13.23;;;4.32;;
60370;SDS011;48550;40.588;49.684;2022-08-01T04:41:57;6.70;;;4.00;;
60370;SDS011;48550;40.588;49.684;2022-08-01T04:44:25;8.50;;;3.83;;
60370;SDS011;48550;40.588;49.684;2022-08-01T04:46:52;12.88;;;5.20;;
60370;SDS011;48550;40.588;49.684;2022-08-01T04:49:20;10.10;;;4.75;;
60370;SDS011;48550;40.588;49.684;2022-08-01T04:51:53;8.55;;;4.00;;
60370;SDS011;48550;40.588;49.684;2022-08-01T04:54:25;5.35;;;4.07;;
60370;SDS011;48550;40.588;49.684;2022-08-01T04:56:52;5.72;;;4.10;;
60370;SDS011;48550;40.588;49.684;2022-08-01T04:59:20;5.45;;;4.22;;
60370;SDS011;48550;40.588;49.684;2022-08-01T05:02:05;6.60;;;4.40;;
60370;SDS011;48550;40.588;49.684;2022-08-01T05:04:42;9.60;;;4.07;;
60370;SDS011;48550;40.588;49.684;2022-08-01T05:07:09;8.38;;;4.53;;
60370;SDS011;48550;40.588;49.684;2022-08-01T05:09:35;7.93;;;4.10;;
60370;SDS011;48550;40.588;49.684;2022-08-01T05:12:02;6.07;;;4.10;;
60370;SDS011;48550;40.588;49.684;2022-08-01T05:14:30;8.00;;;4.13;;
60370;SDS011;48550;40.588;49.684;2022-08-01T05:17:01;6.03;;;4.40;;
60370;SDS011;48550;40.588;49.684;2022-08-01T05:19:29;8.45;;;4.38;;
60370;SDS011;48550;40.588;49.684;2022-08-01T05:21:57;19.13;;;4.63;;
60370;SDS011;48550;40.588;49.684;2022-08-01T05:24:25;8.60;;;4.63;;
60370;SDS011;48550;40.588;49.684;2022-08-01T05:26:53;6.65;;;4.55;;
60370;SDS011;48550;40.588;49.684;2022-08-01T05:29:20;7.22;;;4.25;;
60370;SDS011;48550;40.588;49.684;2022-08-01T05:31:46;5.75;;;4.20;;
60370;SDS011;48550;40.588;49.684;2022-08-01T05:34:11;9.48;;;5.13;;
60370;SDS011;48550;40.588;49.684;2022-08-01T05:36:37;6.82;;;4.05;;
60370;SDS011;48550;40.588;49.684;2022-08-01T05:39:03;5.95;;;4.22;;
60370;SDS011;48550;40.588;49.684;2022-08-01T05:41:30;8.88;;;4.30;;
60370;SDS011;48550;40.588;49.684;2022-08-01T05:43:55;9.65;;;5.47;;
60370;SDS011;48550;40.588;49.684;2022-08-01T05:46:21;9.18;;;4.43;;
60370;SDS011;48550;40.588;49.684;2022-08-01T05:48:47;7.70;;;4.25;;
60370;SDS011;48550;40.588;49.684;2022-08-01T05:51:13;9.13;;;5.30;;
60370;SDS011;48550;40.588;49.684;2022-08-01T05:53:38;8.30;;;4.50;;
60370;SDS011;48550;40.588;49.684;2022-08-01T05:56:04;6.60;;;4.30;;
60370;SDS011;48550;40.588;49.684;2022-08-01T05:58:30;8.63;;;4.85;;
60370;SDS011;48550;40.588;49.684;2022-08-01T06:00:57;7.78;;;4.43;;
60370;SDS011;48550;40.588;49.684;2022-08-01T06:03:23;6.30;;;4.47;;
60370;SDS011;48550;40.588;49.684;2022-08-01T06:05:49;6.43;;;4.07;;
60370;SDS011;48550;40.588;49.684;2022-08-01T06:08:16;8.60;;;4.32;;
60370;SDS011;48550;40.588;49.684;2022-08-01T06:10:42;6.47;;;4.13;;
60370;SDS011;48550;40.588;49.684;2022-08-01T06:13:08;8.30;;;4.28;;
60370;SDS011;48550;40.588;49.684;2022-08-01T06:15:34;6.18;;;3.80;;
60370;SDS011;48550;40.588;49.684;2022-08-01T06:17:59;6.10;;;3.95;;
60370;SDS011;48550;40.588;49.684;2022-08-01T06:20:25;4.97;;;3.60;;
60370;SDS011;48550;40.588;49.684;2022-08-01T06:22:51;5.95;;;4.00;;
60370;SDS011;48550;40.588;49.684;2022-08-01T06:25:17;6.68;;;4.18;;
60370;SDS011;48550;40.588;49.684;2022-08-01T06:27:44;6.38;;;4.10;;
60370;SDS011;48550;40.588;49.684;2022-08-01T06:30:10;6.03;;;4.13;;
60370;SDS011;48550;40.588;49.684;2022-08-01T06:32:36;8.68;;;4.30;;
60370;SDS011;48550;40.588;49.684;2022-08-01T06:35:02;6.43;;;4.13;;
60370;SDS011;48550;40.588;49.684;2022-08-01T06:37:28;6.88;;;4.25;;
60370;SDS011;48550;40.588;49.684;2022-08-01T06:40:01;5.75;;;3.88;;
60370;SDS011;48550;40.588;49.684;2022-08-01T06:42:28;6.45;;;4.30;;
60370;SDS011;48550;40.588;49.684;2022-08-01T06:44:57;9.70;;;4.88;;
60370;SDS011;48550;40.588;49.684;2022-08-01T06:47:22;9.45;;;4.93;;
60370;SDS011;48550;40.588;49.684;2022-08-01T06:49:48;7.05;;;4.75;;
60370;SDS011;48550;40.588;49.684;2022-08-01T06:52:14;6.10;;;4.25;;
60370;SDS011;48550;40.588;49.684;2022-08-01T06:54:40;7.55;;;4.53;;
60370;SDS011;48550;40.588;49.684;2022-08-01T06:57:06;5.78;;;4.40;;
60370;SDS011;48550;40.588;49.684;2022-08-01T06:59:32;7.95;;;4.53;;
60370;SDS011;48550;40.588;49.684;2022-08-01T07:01:58;9.02;;;4.60;;
60370;SDS011;48550;40.588;49.684;2022-08-01T07:04:26;6.97;;;4.40;;
60370;SDS011;48550;40.588;49.684;2022-08-01T07:06:52;7.22;;;4.60;;
60370;SDS011;48550;40.588;49.684;2022-08-01T07:09:17;6.85;;;4.10;;
60370;SDS011;48550;40.588;49.684;2022-08-01T07:11:43;5.60;;;4.70;;
60370;SDS011;48550;40.588;49.684;2022-08-01T07:14:09;6.18;;;5.03;;
60370;SDS011;48550;40.588;49.684;2022-08-01T07:16:35;8.05;;;4.65;;
60370;SDS011;48550;40.588;49.684;2022-08-01T07:19:00;9.23;;;5.13;;
60370;SDS011;48550;40.588;49.684;2022-08-01T07:21:26;7.47;;;5.05;;
60370;SDS011;48550;40.588;49.684;2022-08-01T07:23:52;7.18;;;5.13;;
60370;SDS011;48550;40.588;49.684;2022-08-01T07:26:17;6.85;;;4.70;;
60370;SDS011;48550;40.588;49.684;2022-08-01T07:28:43;7.18;;;5.10;;
60370;SDS011;48550;40.588;49.684;2022-08-01T07:31:09;7.57;;;5.05;;
60370;SDS011;48550;40.588;49.684;2022-08-01T07:33:35;6.75;;;5.05;;
60370;SDS011;48550;40.588;49.684;2022-08-01T07:36:00;7.43;;;5.03;;
60370;SDS011;48550;40.588;49.684;2022-08-01T07:38:26;9.32;;;5.88;;
60370;SDS011;48550;40.588;49.684;2022-08-01T07:40:52;6.00;;;4.90;;
60370;SDS011;48550;40.588;49.684;2022-08-01T07:43:19;8.13;;;5.18;;
60370;SDS011;48550;40.588;49.684;2022-08-01T07:45:44;7.10;;;5.20;;
60370;SDS011;48550;40.588;49.684;2022-08-01T07:48:10;8.70;;;5.25;;
60370;SDS011;48550;40.588;49.684;2022-08-01T07:50:36;10.40;;;5.32;;
60370;SDS011;48550;40.588;49.684;2022-08-01T07:53:01;8.75;;;5.72;;
60370;SDS011;48550;40.588;49.684;2022-08-01T07:55:28;7.65;;;5.53;;
60370;SDS011;48550;40.588;49.684;2022-08-01T07:57:54;12.88;;;6.38;;
60370;SDS011;48550;40.588;49.684;2022-08-01T08:00:20;14.57;;;6.43;;
60370;SDS011;48550;40.588;49.684;2022-08-01T08:02:45;9.15;;;6.03;;
60370;SDS011;48550;40.588;49.684;2022-08-01T08:05:11;10.65;;;6.25;;
60370;SDS011;48550;40.588;49.684;2022-08-01T08:07:37;11.65;;;6.75;;
60370;SDS011;48550;40.588;49.684;2022-08-01T08:10:04;12.65;;;7.68;;
60370;SDS011;48550;40.588;49.684;2022-08-01T08:12:30;9.98;;;6.78;;
60370;SDS011;48550;40.588;49.684;2022-08-01T08:14:57;10.40;;;6.78;;
60370;SDS011;48550;40.588;49.684;2022-08-01T08:17:26;10.55;;;6.32;;
60370;SDS011;48550;40.588;49.684;2022-08-01T08:19:52;9.00;;;6.47;;
60370;SDS011;48550;40.588;49.684;2022-08-01T08:22:18;9.65;;;6.85;;
60370;SDS011;48550;40.588;49.684;2022-08-01T08:24:44;8.40;;;6.80;;
60370;SDS011;48550;40.588;49.684;2022-08-01T08:27:10;10.05;;;6.90;;
60370;SDS011;48550;40.588;49.684;2022-08-01T08:29:36;9.55;;;6.95;;
60370;SDS011;48550;40.588;49.684;2022-08-01T08:32:02;7.93;;;5.97;;
60370;SDS011;48550;40.588;49.684;2022-08-01T08:34:28;9.57;;;6.30;;
60370;SDS011;48550;40.588;49.684;2022-08-01T08:36:55;7.55;;;6.10;;
60370;SDS011;48550;40.588;49.684;2022-08-01T08:39:22;7.63;;;5.88;;
60370;SDS011;48550;40.588;49.684;2022-08-01T08:41:48;8.73;;;5.88;;
60370;SDS011;48550;40.588;49.684;2022-08-01T08:44:13;10.15;;;5.70;;
60370;SDS011;48550;40.588;49.684;2022-08-01T08:46:40;8.98;;;5.90;;
60370;SDS011;48550;40.588;49.684;2022-08-01T08:49:11;8.77;;;6.17;;
60370;SDS011;48550;40.588;49.684;2022-08-01T08:51:41;7.38;;;5.30;;
60370;SDS011;48550;40.588;49.684;2022-08-01T08:54:10;7.60;;;6.10;;
60370;SDS011;48550;40.588;49.684;2022-08-01T08:56:40;8.23;;;5.40;;
60370;SDS011;48550;40.588;49.684;2022-08-01T08:59:07;7.32;;;5.20;;
60370;SDS011;48550;40.588;49.684;2022-08-01T09:01:33;8.73;;;5.38;;
60370;SDS011;48550;40.588;49.684;2022-08-01T09:04:01;7.93;;;5.65;;
60370;SDS011;48550;40.588;49.684;2022-08-01T09:06:28;8.68;;;5.70;;
60370;SDS011;48550;40.588;49.684;2022-08-01T09:08:55;7.15;;;5.72;;
60370;SDS011;48550;40.588;49.684;2022-08-01T09:11:21;7.82;;;4.95;;
60370;SDS011;48550;40.588;49.684;2022-08-01T09:14:21;6.53;;;5.30;;
60370;SDS011;48550;40.588;49.684;2022-08-01T09:16:41;7.18;;;5.78;;
60370;SDS011;48550;40.588;49.684;2022-08-01T09:19:11;8.23;;;5.47;;
60370;SDS011;48550;40.588;49.684;2022-08-01T09:21:57;8.30;;;5.63;;
60370;SDS011;48550;40.588;49.684;2022-08-01T09:24:25;6.90;;;5.13;;
60370;SDS011;48550;40.588;49.684;2022-08-01T09:26:52;8.35;;;4.85;;
60370;SDS011;48550;40.588;49.684;2022-08-01T09:29:23;6.10;;;4.40;;
60370;SDS011;48550;40.588;49.684;2022-08-01T09:31:50;8.15;;;5.70;;
60370;SDS011;48550;40.588;49.684;2022-08-01T09:34:23;9.30;;;5.70;;
60370;SDS011;48550;40.588;49.684;2022-08-01T09:36:54;7.82;;;5.32;;
60370;SDS011;48550;40.588;49.684;2022-08-01T09:39:22;7.90;;;5.40;;
60370;SDS011;48550;40.588;49.684;2022-08-01T09:41:55;7.00;;;5.50;;
60370;SDS011;48550;40.588;49.684;2022-08-01T09:44:39;6.70;;;5.15;;
60370;SDS011;48550;40.588;49.684;2022-08-01T09:47:07;7.57;;;4.97;;
60370;SDS011;48550;40.588;49.684;2022-08-01T09:49:37;7.00;;;5.47;;
60370;SDS011;48550;40.588;49.684;2022-08-01T09:52:10;9.63;;;7.63;;
60370;SDS011;48550;40.588;49.684;2022-08-01T09:54:51;9.40;;;5.68;;
60370;SDS011;48550;40.588;49.684;2022-08-01T09:57:20;7.95;;;5.40;;
60370;SDS011;48550;40.588;49.684;2022-08-01T09:59:47;8.38;;;5.32;;
60370;SDS011;48550;40.588;49.684;2022-08-01T10:02:37;6.63;;;5.20;;
60370;SDS011;48550;40.588;49.684;2022-08-01T10:05:06;6.75;;;5.57;;
60370;SDS011;48550;40.588;49.684;2022-08-01T10:07:33;6.97;;;5.88;;
60370;SDS011;48550;40.588;49.684;2022-08-01T10:10:12;7.43;;;5.80;;
60370;SDS011;48550;40.588;49.684;2022-08-01T10:12:40;7.30;;;5.85;;
60370;SDS011;48550;40.588;49.684;2022-08-01T10:15:06;8.07;;;5.90;;
60370;SDS011;48550;40.588;49.684;2022-08-01T10:17:33;8.45;;;5.65;;
60370;SDS011;48550;40.588;49.684;2022-08-01T10:20:02;9.68;;;6.32;;
60370;SDS011;48550;40.588;49.684;2022-08-01T10:22:29;9.32;;;6.13;;
60370;SDS011;48550;40.588;49.684;2022-08-01T10:24:56;9.18;;;6.38;;
60370;SDS011;48550;40.588;49.684;2022-08-01T10:27:28;8.95;;;6.57;;
60370;SDS011;48550;40.588;49.684;2022-08-01T10:29:58;8.60;;;6.68;;
60370;SDS011;48550;40.588;49.684;2022-08-01T10:32:33;13.05;;;7.72;;
60370;SDS011;48550;40.588;49.684;2022-08-01T10:35:00;6.43;;;5.40;;
60370;SDS011;48550;40.588;49.684;2022-08-01T10:37:26;8.68;;;6.95;;
60370;SDS011;48550;40.588;49.684;2022-08-01T10:39:53;13.48;;;6.60;;
60370;SDS011;48550;40.588;49.684;2022-08-01T10:42:20;8.63;;;6.35;;
60370;SDS011;48550;40.588;49.684;2022-08-01T10:44:47;9.90;;;7.05;;
60370;SDS011;48550;40.588;49.684;2022-08-01T10:47:14;7.13;;;6.05;;
60370;SDS011;48550;40.588;49.684;2022-08-01T10:52:36;7.95;;;6.15;;
60370;SDS011;48550;40.588;49.684;2022-08-01T10:55:05;8.55;;;6.25;;
60370;SDS011;48550;40.588;49.684;2022-08-01T10:57:46;7.45;;;6.20;;
60370;SDS011;48550;40.588;49.684;2022-08-01T11:00:19;8.00;;;5.88;;
60370;SDS011;48550;40.588;49.684;2022-08-01T11:02:59;10.77;;;6.10;;
60370;SDS011;48550;40.588;49.684;2022-08-01T11:05:30;6.90;;;5.78;;
60370;SDS011;48550;40.588;49.684;2022-08-01T11:08:01;6.32;;;4.95;;
60370;SDS011;48550;40.588;49.684;2022-08-01T11:10:45;6.50;;;5.80;;
60370;SDS011;48550;40.588;49.684;2022-08-01T11:13:12;6.93;;;5.80;;
60370;SDS011;48550;40.588;49.684;2022-08-01T11:15:38;8.48;;;5.60;;
60370;SDS011;48550;40.588;49.684;2022-08-01T11:20:56;7.70;;;5.55;;
60370;SDS011;48550;40.588;49.684;2022-08-01T11:23:30;7.22;;;6.03;;
60370;SDS011;48550;40.588;49.684;2022-08-01T11:26:12;8.05;;;5.82;;
60370;SDS011;48550;40.588;49.684;2022-08-01T11:28:39;7.82;;;5.65;;
60370;SDS011;48550;40.588;49.684;2022-08-01T11:38:36;7.30;;;6.28;;
60370;SDS011;48550;40.588;49.684;2022-08-01T11:43:59;9.55;;;6.40;;
60370;SDS011;48550;40.588;49.684;2022-08-01T11:51:53;8.68;;;5.88;;
60370;SDS011;48550;40.588;49.684;2022-08-01T11:54:30;9.35;;;6.45;;
60370;SDS011;48550;40.588;49.684;2022-08-01T11:56:58;8.85;;;6.07;;
60370;SDS011;48550;40.588;49.684;2022-08-01T11:59:25;8.32;;;6.20;;
60370;SDS011;48550;40.588;49.684;2022-08-01T12:01:52;9.88;;;6.40;;
60370;SDS011;48550;40.588;49.684;2022-08-01T12:04:18;7.53;;;6.20;;
60370;SDS011;48550;40.588;49.684;2022-08-01T12:06:45;9.02;;;6.18;;
60370;SDS011;48550;40.588;49.684;2022-08-01T12:09:14;7.43;;;6.20;;
60370;SDS011;48550;40.588;49.684;2022-08-01T12:11:41;7.68;;;5.88;;
60370;SDS011;48550;40.588;49.684;2022-08-01T12:14:07;8.65;;;5.72;;
60370;SDS011;48550;40.588;49.684;2022-08-01T12:16:32;7.10;;;6.15;;
60370;SDS011;48550;40.588;49.684;2022-08-01T12:19:01;8.13;;;5.22;;
60370;SDS011;48550;40.588;49.684;2022-08-01T12:21:27;8.98;;;7.22;;
60370;SDS011;48550;40.588;49.684;2022-08-01T12:24:00;7.47;;;6.22;;
60370;SDS011;48550;40.588;49.684;2022-08-01T12:26:39;8.02;;;6.32;;
60370;SDS011;48550;40.588;49.684;2022-08-01T12:29:06;8.07;;;6.25;;
60370;SDS011;48550;40.588;49.684;2022-08-01T12:31:33;6.82;;;6.03;;
60370;SDS011;48550;40.588;49.684;2022-08-01T12:34:24;7.60;;;6.07;;
60370;SDS011;48550;40.588;49.684;2022-08-01T12:36:54;6.53;;;5.68;;
60370;SDS011;48550;40.588;49.684;2022-08-01T12:39:21;7.97;;;6.43;;
60370;SDS011;48550;40.588;49.684;2022-08-01T12:41:47;8.93;;;6.63;;
60370;SDS011;48550;40.588;49.684;2022-08-01T12:44:13;7.47;;;5.68;;
60370;SDS011;48550;40.588;49.684;2022-08-01T12:46:40;7.72;;;6.43;;
60370;SDS011;48550;40.588;49.684;2022-08-01T12:49:07;6.95;;;6.25;;
60370;SDS011;48550;40.588;49.684;2022-08-01T12:51:33;10.20;;;7.15;;
60370;SDS011;48550;40.588;49.684;2022-08-01T12:54:00;8.95;;;6.30;;
60370;SDS011;48550;40.588;49.684;2022-08-01T12:56:32;9.00;;;6.50;;
60370;SDS011;48550;40.588;49.684;2022-08-01T12:58:59;9.68;;;7.18;;
60370;SDS011;48550;40.588;49.684;2022-08-01T13:01:26;10.43;;;6.60;;
60370;SDS011;48550;40.588;49.684;2022-08-01T13:04:01;8.38;;;7.03;;
60370;SDS011;48550;40.588;49.684;2022-08-01T13:06:31;8.25;;;7.10;;
60370;SDS011;48550;40.588;49.684;2022-08-01T13:09:04;7.25;;;6.40;;
60370;SDS011;48550;40.588;49.684;2022-08-01T13:11:31;8.80;;;7.25;;
60370;SDS011;48550;40.588;49.684;2022-08-01T13:13:57;7.85;;;6.47;;
60370;SDS011;48550;40.588;49.684;2022-08-01T13:16:23;7.32;;;5.97;;
60370;SDS011;48550;40.588;49.684;2022-08-01T13:18:51;8.93;;;6.78;;
60370;SDS011;48550;40.588;49.684;2022-08-01T13:21:19;10.77;;;7.53;;
60370;SDS011;48550;40.588;49.684;2022-08-01T13:29:07;12.32;;;11.10;;
60370;SDS011;48550;40.588;49.684;2022-08-01T13:31:36;9.23;;;7.88;;
60370;SDS011;48550;40.588;49.684;2022-08-01T13:34:03;8.55;;;7.35;;
60370;SDS011;48550;40.588;49.684;2022-08-01T13:36:29;9.57;;;7.63;;
60370;SDS011;48550;40.588;49.684;2022-08-01T13:38:56;14.57;;;12.38;;
60370;SDS011;48550;40.588;49.684;2022-08-01T13:41:41;16.25;;;11.38;;
60370;SDS011;48550;40.588;49.684;2022-08-01T13:44:07;19.38;;;15.65;;
60370;SDS011;48550;40.588;49.684;2022-08-01T13:46:34;9.60;;;7.22;;
60370;SDS011;48550;40.588;49.684;2022-08-01T13:49:00;8.35;;;6.85;;
60370;SDS011;48550;40.588;49.684;2022-08-01T13:51:27;9.02;;;7.47;;
60370;SDS011;48550;40.588;49.684;2022-08-01T13:53:53;9.75;;;7.95;;
60370;SDS011;48550;40.588;49.684;2022-08-01T13:56:18;9.23;;;7.25;;
60370;SDS011;48550;40.588;49.684;2022-08-01T13:58:45;8.20;;;7.15;;
60370;SDS011;48550;40.588;49.684;2022-08-01T14:01:11;10.38;;;8.02;;
60370;SDS011;48550;40.588;49.684;2022-08-01T14:03:37;8.80;;;7.53;;
60370;SDS011;48550;40.588;49.684;2022-08-01T14:06:03;8.57;;;7.68;;
60370;SDS011;48550;40.588;49.684;2022-08-01T14:08:30;8.25;;;7.10;;
60370;SDS011;48550;40.588;49.684;2022-08-01T14:10:56;9.40;;;7.25;;
60370;SDS011;48550;40.588;49.684;2022-08-01T14:13:27;10.55;;;7.53;;
60370;SDS011;48550;40.588;49.684;2022-08-01T14:15:53;8.45;;;7.55;;
60370;SDS011;48550;40.588;49.684;2022-08-01T14:18:19;8.73;;;7.28;;
60370;SDS011;48550;40.588;49.684;2022-08-01T14:20:46;10.25;;;6.78;;
60370;SDS011;48550;40.588;49.684;2022-08-01T14:23:11;10.52;;;8.20;;
60370;SDS011;48550;40.588;49.684;2022-08-01T14:25:37;10.68;;;8.50;;
60370;SDS011;48550;40.588;49.684;2022-08-01T14:28:04;8.55;;;7.30;;
60370;SDS011;48550;40.588;49.684;2022-08-01T14:30:31;8.25;;;7.35;;
60370;SDS011;48550;40.588;49.684;2022-08-01T14:32:58;8.93;;;7.80;;
60370;SDS011;48550;40.588;49.684;2022-08-01T14:35:24;8.38;;;7.45;;
60370;SDS011;48550;40.588;49.684;2022-08-01T14:37:50;10.80;;;8.65;;
60370;SDS011;48550;40.588;49.684;2022-08-01T14:40:16;10.10;;;8.27;;
60370;SDS011;48550;40.588;49.684;2022-08-01T14:42:42;9.52;;;7.68;;
60370;SDS011;48550;40.588;49.684;2022-08-01T14:45:11;8.23;;;7.25;;
60370;SDS011;48550;40.588;49.684;2022-08-01T14:47:38;8.75;;;7.85;;
60370;SDS011;48550;40.588;49.684;2022-08-01T14:50:07;9.48;;;7.55;;
60370;SDS011;48550;40.588;49.684;2022-08-01T14:52:35;9.57;;;8.13;;
60370;SDS011;48550;40.588;49.684;2022-08-01T14:55:02;8.60;;;7.43;;
60370;SDS011;48550;40.588;49.684;2022-08-01T14:57:29;8.95;;;7.68;;
60370;SDS011;48550;40.588;49.684;2022-08-01T14:59:55;9.18;;;7.65;;
60370;SDS011;48550;40.588;49.684;2022-08-01T15:02:21;9.00;;;7.88;;
60370;SDS011;48550;40.588;49.684;2022-08-01T15:04:47;9.55;;;8.13;;
60370;SDS011;48550;40.588;49.684;2022-08-01T15:07:13;9.50;;;8.20;;
60370;SDS011;48550;40.588;49.684;2022-08-01T15:09:39;9.90;;;7.97;;
60370;SDS011;48550;40.588;49.684;2022-08-01T15:12:06;8.57;;;7.07;;
60370;SDS011;48550;40.588;49.684;2022-08-01T15:14:32;10.60;;;7.88;;
60370;SDS011;48550;40.588;49.684;2022-08-01T15:17:16;12.07;;;8.43;;